Terminal Aerodrome Forecast
Issued by NWS

Home | Current Version | Previous Version | Text Only | Print | Product List | Glossary On
Versions: 1 2 3 4 5 6 7 8 9 10 11 12 13 14 15 16 17 18 19 20 21
934
FTUS46 KEKA 221630 AAA
TAFUKI
TAF AMD
KUKI 221630Z 2217/2312 33008KT P6SM OVC018
      TEMPO 2217/2219 BKN025
     FM221900 36005KT P6SM SCT025 SCT050
     FM222200 32008G16KT P6SM VCSH BKN050 BKN100
     FM230300 35007KT P6SM BKN050
     FM230800 VRB03KT P6SM OVC020=

USA.gov is the U.S. government's official web portal to all federal, state and local government web resources and services.